createdAt,value
2023-02-19T00:01:44.787Z,5.63
2023-02-19T00:04:16.451Z,7.00
2023-02-19T00:06:43.396Z,7.60
2023-02-19T00:09:14.616Z,8.40
2023-02-19T00:11:41.697Z,6.18
2023-02-19T00:14:08.544Z,4.53
2023-02-19T00:16:36.734Z,4.18
2023-02-19T00:19:04.691Z,3.08
2023-02-19T00:21:31.434Z,3.00
2023-02-19T00:23:59.929Z,2.72
2023-02-19T00:26:26.692Z,2.97
2023-02-19T00:28:53.801Z,3.08
2023-02-19T00:31:25.214Z,3.20
2023-02-19T00:33:55.148Z,3.78
2023-02-19T00:36:21.982Z,2.33
2023-02-19T00:38:48.776Z,2.03
2023-02-19T00:41:21.927Z,2.10
2023-02-19T00:43:50.351Z,2.50
2023-02-19T00:46:21.546Z,3.05
2023-02-19T00:48:48.545Z,2.95
2023-02-19T00:51:15.232Z,2.45
2023-02-19T00:53:42.197Z,3.22
2023-02-19T00:56:09.162Z,3.63
2023-02-19T00:58:35.954Z,3.00
2023-02-19T01:01:02.697Z,1.60
2023-02-19T01:03:29.449Z,2.00
2023-02-19T01:05:56.154Z,2.35
2023-02-19T01:08:22.875Z,2.50
2023-02-19T01:10:49.572Z,2.35
2023-02-19T01:13:16.508Z,2.42
2023-02-19T01:15:43.232Z,1.88
2023-02-19T01:18:10.073Z,2.20
2023-02-19T01:20:39.766Z,1.88
2023-02-19T01:23:06.617Z,1.50
2023-02-19T01:25:33.218Z,1.98
2023-02-19T01:27:59.843Z,2.30
2023-02-19T01:30:26.585Z,1.95
2023-02-19T01:32:53.268Z,2.00
2023-02-19T01:35:20.036Z,1.67
2023-02-19T01:37:46.710Z,2.20
2023-02-19T01:40:13.335Z,6.70
2023-02-19T01:42:43.798Z,5.97
2023-02-19T01:45:30.415Z,4.38
2023-02-19T01:48:07.007Z,3.58
2023-02-19T01:50:37.164Z,2.85
2023-02-19T01:53:05.434Z,2.30
2023-02-19T01:55:32.845Z,2.05
2023-02-19T01:57:59.528Z,2.70
2023-02-19T02:00:26.530Z,1.38
2023-02-19T02:02:54.438Z,2.38
2023-02-19T02:05:33.042Z,2.00
2023-02-19T02:08:18.579Z,1.63
2023-02-19T02:10:45.358Z,3.15
2023-02-19T02:13:12.019Z,3.60
2023-02-19T02:16:10.697Z,3.00
2023-02-19T02:19:04.984Z,2.50
2023-02-19T02:22:07.850Z,3.72
2023-02-19T02:24:49.093Z,3.70
2023-02-19T02:30:06.611Z,3.63
2023-02-19T02:32:53.488Z,2.50
2023-02-19T02:35:22.637Z,1.75
2023-02-19T02:40:15.847Z,2.55
2023-02-19T02:42:42.934Z,2.03
2023-02-19T02:45:36.519Z,2.03
2023-02-19T02:48:16.652Z,1.88
2023-02-19T02:50:47.277Z,1.48
2023-02-19T02:53:37.019Z,2.13
2023-02-19T02:56:03.986Z,2.35
2023-02-19T02:58:30.832Z,2.22
2023-02-19T03:01:22.868Z,1.50
2023-02-19T03:03:51.511Z,1.30
2023-02-19T03:06:18.282Z,1.50
2023-02-19T03:09:07.903Z,1.00
2023-02-19T03:11:53.600Z,1.20
2023-02-19T03:14:46.355Z,0.80
2023-02-19T03:17:41.298Z,0.60
2023-02-19T03:20:10.725Z,0.70
2023-02-19T03:22:37.375Z,0.70
2023-02-19T03:25:25.901Z,0.85
2023-02-19T03:27:52.585Z,0.80
2023-02-19T03:30:21.125Z,0.65
2023-02-19T03:33:12.378Z,1.58
2023-02-19T03:35:42.227Z,0.88
2023-02-19T03:38:27.295Z,0.80
2023-02-19T03:41:12.928Z,0.90
2023-02-19T03:43:43.165Z,2.88
2023-02-19T03:46:11.833Z,1.50
2023-02-19T03:49:03.356Z,1.55
2023-02-19T03:51:39.293Z,2.20
2023-02-19T03:54:32.193Z,1.80
2023-02-19T03:57:14.940Z,0.85
2023-02-19T03:59:56.927Z,1.13
2023-02-19T04:02:30.294Z,1.23
2023-02-19T04:05:27.168Z,1.52
2023-02-19T04:07:55.154Z,1.67
2023-02-19T04:10:21.807Z,3.50
2023-02-19T04:12:50.776Z,1.30
2023-02-19T04:17:53.613Z,2.15
2023-02-19T04:20:20.321Z,2.28
2023-02-19T04:22:46.968Z,1.15
2023-02-19T04:25:13.687Z,1.95
2023-02-19T04:27:40.522Z,1.58
2023-02-19T04:30:08.059Z,2.28
2023-02-19T04:32:34.821Z,1.75
2023-02-19T04:35:01.474Z,1.23
2023-02-19T04:37:28.112Z,1.48
2023-02-19T04:39:54.935Z,1.27
2023-02-19T04:42:21.771Z,1.45
2023-02-19T04:44:48.522Z,2.45
2023-02-19T04:47:17.831Z,2.95
2023-02-19T04:49:45.302Z,4.32
2023-02-19T04:52:11.972Z,3.83
2023-02-19T04:54:38.671Z,3.63
2023-02-19T04:57:05.529Z,3.20
2023-02-19T04:59:32.217Z,2.60
2023-02-19T05:01:58.977Z,1.50
2023-02-19T05:04:25.683Z,1.90
2023-02-19T05:06:52.407Z,1.80
2023-02-19T05:09:19.128Z,2.35
2023-02-19T05:11:45.774Z,4.20
2023-02-19T05:14:12.580Z,6.18
2023-02-19T05:16:39.306Z,8.88
2023-02-19T05:19:05.967Z,12.95
2023-02-19T05:21:32.666Z,12.48
2023-02-19T05:23:59.511Z,12.50
2023-02-19T05:26:26.764Z,13.65
2023-02-19T05:28:53.513Z,11.60
2023-02-19T05:31:20.497Z,9.75
2023-02-19T05:33:50.217Z,9.50
2023-02-19T05:36:17.275Z,8.95
2023-02-19T05:38:43.993Z,10.32
2023-02-19T05:41:15.874Z,15.98
2023-02-19T05:43:43.381Z,16.30
2023-02-19T05:46:10.709Z,12.27
2023-02-19T05:48:37.361Z,11.82
2023-02-19T05:51:12.227Z,13.55
2023-02-19T05:53:39.125Z,13.68
2023-02-19T05:56:07.086Z,10.98
2023-02-19T05:58:33.733Z,12.10
2023-02-19T06:01:00.409Z,14.38
2023-02-19T06:03:27.195Z,14.45
2023-02-19T06:05:53.953Z,16.95
2023-02-19T06:08:20.566Z,13.68
2023-02-19T06:10:47.284Z,11.60
2023-02-19T06:13:14.428Z,11.70
2023-02-19T06:15:41.748Z,15.35
2023-02-19T06:18:08.498Z,26.98
2023-02-19T06:20:35.209Z,29.58
2023-02-19T06:23:01.907Z,25.58
2023-02-19T06:25:28.641Z,14.52
2023-02-19T06:27:55.419Z,16.70
2023-02-19T06:30:22.228Z,22.17
2023-02-19T06:32:52.119Z,19.27
2023-02-19T06:35:18.979Z,18.23
2023-02-19T06:37:48.970Z,22.27
2023-02-19T06:40:16.246Z,18.17
2023-02-19T06:42:42.896Z,22.23
2023-02-19T06:45:09.648Z,21.98
2023-02-19T06:47:36.457Z,19.38
2023-02-19T06:50:03.164Z,25.38
2023-02-19T06:52:29.785Z,30.90
2023-02-19T06:54:56.518Z,23.38
2023-02-19T06:57:23.254Z,15.75
2023-02-19T06:59:49.987Z,14.07
2023-02-19T07:02:16.714Z,15.85
2023-02-19T07:04:43.378Z,25.10
2023-02-19T07:07:13.133Z,19.52
2023-02-19T07:09:39.805Z,30.20
2023-02-19T07:12:10.225Z,26.88
2023-02-19T07:14:45.368Z,19.65
2023-02-19T07:17:12.212Z,34.45
2023-02-19T07:19:38.854Z,17.98
2023-02-19T07:22:05.601Z,13.82
2023-02-19T07:24:32.353Z,40.17
2023-02-19T07:26:59.082Z,37.70
2023-02-19T07:29:25.831Z,24.65
2023-02-19T07:31:52.596Z,28.73
2023-02-19T07:34:19.309Z,17.95
2023-02-19T07:36:46.018Z,19.67
2023-02-19T07:39:13.401Z,11.50
2023-02-19T07:41:39.998Z,11.70
2023-02-19T07:44:06.718Z,15.48
2023-02-19T07:46:33.389Z,14.73
2023-02-19T07:49:00.145Z,18.98
2023-02-19T07:51:26.849Z,11.57
2023-02-19T07:53:53.555Z,10.68
2023-02-19T07:56:20.495Z,7.28
2023-02-19T07:58:47.277Z,4.70
2023-02-19T08:01:15.759Z,3.60
2023-02-19T08:03:42.500Z,4.78
2023-02-19T08:06:11.307Z,5.13
2023-02-19T08:08:41.056Z,3.22
2023-02-19T08:11:26.243Z,3.40
2023-02-19T08:13:53.350Z,3.58
2023-02-19T08:16:29.654Z,2.65
2023-02-19T08:19:03.849Z,2.17
2023-02-19T08:21:32.003Z,2.30
2023-02-19T08:23:59.656Z,4.00
2023-02-19T08:26:26.324Z,3.65
2023-02-19T08:28:52.993Z,2.83
2023-02-19T08:31:19.783Z,3.67
2023-02-19T08:33:46.510Z,2.35
2023-02-19T08:36:13.176Z,2.50
2023-02-19T08:38:39.842Z,3.08
2023-02-19T08:41:07.647Z,3.42
2023-02-19T08:43:34.456Z,3.65
2023-02-19T08:46:01.129Z,3.90
2023-02-19T08:48:29.018Z,2.90
2023-02-19T08:50:57.014Z,3.00
2023-02-19T08:53:23.989Z,3.47
2023-02-19T08:55:51.848Z,3.67
2023-02-19T08:58:18.562Z,2.72
2023-02-19T09:00:45.281Z,3.53
2023-02-19T09:03:12.016Z,3.47
2023-02-19T09:05:39.068Z,4.50
2023-02-19T09:08:05.704Z,2.50
2023-02-19T09:10:32.385Z,2.58
2023-02-19T09:12:59.061Z,4.43
2023-02-19T09:15:25.865Z,2.55
2023-02-19T09:17:52.893Z,3.22
2023-02-19T09:20:19.543Z,4.97
2023-02-19T09:22:46.405Z,4.85
2023-02-19T09:25:13.152Z,5.53
2023-02-19T09:27:39.864Z,4.90
2023-02-19T09:30:07.071Z,4.80
2023-02-19T09:32:33.893Z,3.50
2023-02-19T09:35:00.571Z,3.78
2023-02-19T09:37:27.800Z,3.63
2023-02-19T09:39:55.033Z,2.70
2023-02-19T09:42:25.920Z,2.78
2023-02-19T09:44:54.372Z,4.43
2023-02-19T09:47:23.145Z,3.72
2023-02-19T09:49:54.456Z,2.25
2023-02-19T09:52:24.112Z,2.35
2023-02-19T09:54:50.824Z,1.40
2023-02-19T09:57:19.229Z,1.83
2023-02-19T09:59:51.981Z,1.73
2023-02-19T10:02:19.404Z,2.08
2023-02-19T10:04:46.645Z,2.10
2023-02-19T10:07:22.901Z,2.90
2023-02-19T10:10:02.949Z,2.83
2023-02-19T10:12:31.214Z,3.10
2023-02-19T10:15:16.588Z,2.70
2023-02-19T10:17:43.259Z,3.80
2023-02-19T10:20:17.340Z,2.63
2023-02-19T10:22:44.115Z,2.80
2023-02-19T10:25:17.138Z,1.50
2023-02-19T10:27:43.899Z,1.40
2023-02-19T10:30:37.535Z,1.63
2023-02-19T10:33:14.652Z,2.97
2023-02-19T10:35:57.822Z,3.30
2023-02-19T10:38:28.441Z,2.35
2023-02-19T10:40:59.492Z,1.35
2023-02-19T10:43:33.027Z,2.28
2023-02-19T10:46:31.785Z,2.47
2023-02-19T10:48:59.628Z,1.20
2023-02-19T10:51:34.833Z,1.83
2023-02-19T10:54:16.308Z,1.00
2023-02-19T10:56:43.187Z,0.90
2023-02-19T10:59:35.714Z,1.20
2023-02-19T11:04:34.242Z,0.70
2023-02-19T11:07:19.471Z,1.00
2023-02-19T11:09:47.348Z,1.60
2023-02-19T11:12:14.566Z,1.52
2023-02-19T11:14:44.545Z,1.23
2023-02-19T11:17:25.543Z,1.40
2023-02-19T11:20:00.228Z,1.98
2023-02-19T11:22:37.834Z,2.50
2023-02-19T11:25:10.592Z,4.22
2023-02-19T11:27:37.408Z,2.88
2023-02-19T11:30:24.506Z,2.53
2023-02-19T11:32:51.134Z,1.83
2023-02-19T11:35:23.017Z,1.30
2023-02-19T11:37:54.256Z,0.80
2023-02-19T11:40:22.528Z,0.60
2023-02-19T11:43:00.640Z,1.38
2023-02-19T11:45:43.708Z,1.85
2023-02-19T11:48:26.210Z,0.93
2023-02-19T11:50:57.038Z,2.03
2023-02-19T11:53:32.290Z,1.77
2023-02-19T11:56:33.801Z,1.83
2023-02-19T11:59:05.410Z,1.67
2023-02-19T12:01:54.327Z,1.45
2023-02-19T12:04:50.328Z,1.25
2023-02-19T12:07:30.148Z,1.70
2023-02-19T12:10:34.694Z,1.77
2023-02-19T12:13:04.731Z,1.48
2023-02-19T12:18:36.736Z,1.55
2023-02-19T12:21:12.788Z,1.60
2023-02-19T12:24:12.518Z,1.40
2023-02-19T12:26:48.243Z,1.65
2023-02-19T12:29:47.504Z,2.38
2023-02-19T12:32:23.317Z,1.77
2023-02-19T12:35:31.179Z,1.63
2023-02-19T12:38:27.486Z,1.85
2023-02-19T12:41:10.493Z,1.70
2023-02-19T12:43:38.035Z,1.75
2023-02-19T12:46:15.580Z,1.85
2023-02-19T12:49:36.901Z,1.90
2023-02-19T12:52:08.583Z,1.30
2023-02-19T12:54:38.418Z,1.55
2023-02-19T12:57:17.560Z,1.92
2023-02-19T12:59:52.601Z,1.90
2023-02-19T13:02:20.835Z,2.33
2023-02-19T13:05:01.363Z,2.10
2023-02-19T13:07:40.237Z,1.55
2023-02-19T13:10:39.433Z,1.48
2023-02-19T13:13:07.999Z,3.70
2023-02-19T13:15:37.169Z,2.10
2023-02-19T13:18:05.028Z,2.28
2023-02-19T13:20:35.364Z,3.70
2023-02-19T13:23:26.739Z,2.72
2023-02-19T13:26:11.944Z,3.30
2023-02-19T13:28:59.648Z,2.13
2023-02-19T13:31:50.833Z,2.83
2023-02-19T13:34:26.453Z,2.75
2023-02-19T13:36:53.755Z,2.30
2023-02-19T13:39:20.782Z,2.40
2023-02-19T13:41:54.745Z,1.80
2023-02-19T13:44:23.342Z,2.00
2023-02-19T13:46:50.175Z,2.20
2023-02-19T13:49:29.115Z,2.20
2023-02-19T13:51:56.717Z,1.67
2023-02-19T13:54:24.450Z,2.33
2023-02-19T13:56:54.560Z,2.95
2023-02-19T13:59:37.575Z,1.65
2023-02-19T14:02:04.323Z,2.13
2023-02-19T14:04:43.174Z,2.35
2023-02-19T14:07:09.840Z,1.73
2023-02-19T14:09:40.181Z,2.20
2023-02-19T14:12:15.058Z,2.25
2023-02-19T14:14:42.879Z,2.13
2023-02-19T14:17:09.492Z,2.50
2023-02-19T14:19:42.430Z,2.67
2023-02-19T14:22:52.921Z,2.50
2023-02-19T14:25:31.937Z,2.10
2023-02-19T14:28:10.634Z,2.40
2023-02-19T14:31:01.952Z,2.20
2023-02-19T14:33:40.150Z,2.65
2023-02-19T14:36:25.763Z,2.88
2023-02-19T14:38:55.240Z,2.58
2023-02-19T14:41:23.516Z,3.05
2023-02-19T14:43:51.801Z,3.10
2023-02-19T14:46:49.211Z,3.22
2023-02-19T14:49:18.709Z,3.13
2023-02-19T14:51:47.477Z,4.53
2023-02-19T14:54:26.455Z,5.45
2023-02-19T14:56:53.285Z,4.82
2023-02-19T14:59:20.293Z,4.28
2023-02-19T15:01:47.047Z,4.18
2023-02-19T15:04:28.196Z,6.88
2023-02-19T15:06:56.750Z,6.20
2023-02-19T15:09:27.750Z,3.30
2023-02-19T15:11:54.383Z,3.70
2023-02-19T15:14:22.596Z,3.92
2023-02-19T15:16:49.254Z,3.70
2023-02-19T15:19:16.242Z,5.80
2023-02-19T15:21:47.206Z,3.70
2023-02-19T15:24:15.602Z,3.80
2023-02-19T15:29:11.405Z,3.65
2023-02-19T15:31:48.099Z,3.05
2023-02-19T15:34:26.132Z,4.20
2023-02-19T15:37:04.142Z,3.63
2023-02-19T15:39:36.124Z,6.85
2023-02-19T15:42:03.629Z,7.45
2023-02-19T15:44:38.551Z,7.10
2023-02-19T15:47:29.792Z,3.80
2023-02-19T15:50:00.617Z,9.05
2023-02-19T15:52:38.859Z,5.57
2023-02-19T15:55:17.778Z,9.50
2023-02-19T15:57:47.270Z,9.55
2023-02-19T16:00:20.048Z,4.15
2023-02-19T16:02:46.816Z,4.70
2023-02-19T16:05:16.015Z,12.50
2023-02-19T16:07:43.775Z,11.35
2023-02-19T16:10:22.001Z,5.10
2023-02-19T16:12:58.777Z,9.20
2023-02-19T16:15:26.576Z,11.63
2023-02-19T16:17:53.304Z,10.10
2023-02-19T16:20:31.149Z,7.68
2023-02-19T16:23:03.580Z,10.45
2023-02-19T16:25:38.968Z,10.15
2023-02-19T16:28:24.044Z,10.35
2023-02-19T16:31:00.030Z,7.72
2023-02-19T16:33:36.302Z,13.02
2023-02-19T16:36:37.936Z,10.48
2023-02-19T16:39:07.573Z,11.05
2023-02-19T16:42:14.786Z,8.73
2023-02-19T16:44:41.576Z,9.20
2023-02-19T16:47:15.401Z,9.00
2023-02-19T16:49:42.643Z,9.70
2023-02-19T16:52:14.672Z,9.10
2023-02-19T16:54:41.364Z,11.05
2023-02-19T16:57:07.996Z,8.75
2023-02-19T16:59:34.631Z,10.23
2023-02-19T17:02:04.112Z,12.48
2023-02-19T17:04:30.720Z,13.25
2023-02-19T17:06:57.402Z,15.15
2023-02-19T17:09:24.103Z,14.05
2023-02-19T17:11:50.808Z,19.90
2023-02-19T17:14:17.564Z,12.00
2023-02-19T17:16:44.246Z,11.38
2023-02-19T17:19:18.306Z,12.50
2023-02-19T17:21:45.316Z,13.65
2023-02-19T17:24:12.043Z,8.95
2023-02-19T17:26:38.668Z,8.88
2023-02-19T17:29:06.369Z,11.40
2023-02-19T17:31:34.029Z,12.32
2023-02-19T17:34:00.969Z,13.68
2023-02-19T17:36:30.733Z,18.70
2023-02-19T17:39:00.815Z,18.30
2023-02-19T17:41:27.943Z,16.08
2023-02-19T17:43:54.699Z,15.32
2023-02-19T17:46:23.543Z,20.45
2023-02-19T17:48:50.491Z,24.48
2023-02-19T17:51:17.104Z,27.40
2023-02-19T17:53:43.942Z,45.90
2023-02-19T17:56:11.697Z,38.97
2023-02-19T17:58:38.342Z,17.92
2023-02-19T18:01:05.122Z,11.82
2023-02-19T18:03:31.846Z,59.38
2023-02-19T18:05:58.605Z,26.23
2023-02-19T18:08:25.230Z,15.00
2023-02-19T18:10:52.728Z,18.17
2023-02-19T18:13:19.419Z,14.07
2023-02-19T18:15:46.008Z,12.60
2023-02-19T18:18:12.671Z,14.02
2023-02-19T18:20:39.511Z,11.82
2023-02-19T18:23:06.146Z,21.02
2023-02-19T18:25:32.860Z,16.92
2023-02-19T18:27:59.584Z,9.82
2023-02-19T18:30:26.305Z,11.90
2023-02-19T18:32:53.018Z,18.23
2023-02-19T18:35:19.866Z,14.13
2023-02-19T18:37:52.739Z,13.57
2023-02-19T18:40:22.732Z,12.77
2023-02-19T18:42:49.353Z,20.30
2023-02-19T18:45:16.771Z,14.80
2023-02-19T18:47:46.666Z,21.17
2023-02-19T18:50:13.300Z,13.48
2023-02-19T18:52:39.906Z,22.10
2023-02-19T18:55:07.083Z,32.38
2023-02-19T18:57:33.749Z,24.13
2023-02-19T19:00:00.345Z,22.30
2023-02-19T19:02:29.729Z,20.23
2023-02-19T19:04:58.321Z,8.13
2023-02-19T19:07:24.974Z,7.97
2023-02-19T19:09:51.781Z,11.77
2023-02-19T19:12:18.458Z,11.43
2023-02-19T19:14:45.130Z,16.02
2023-02-19T19:17:11.780Z,7.60
2023-02-19T19:19:38.480Z,20.67
2023-02-19T19:22:05.128Z,14.68
2023-02-19T19:24:31.833Z,10.70
2023-02-19T19:26:58.537Z,12.38
2023-02-19T19:29:25.474Z,15.23
2023-02-19T19:31:52.358Z,32.13
2023-02-19T19:34:19.134Z,19.73
2023-02-19T19:36:45.988Z,16.17
2023-02-19T19:39:13.049Z,21.02
2023-02-19T19:41:39.760Z,17.75
2023-02-19T19:44:06.737Z,10.95
2023-02-19T19:46:33.607Z,19.50
2023-02-19T19:49:00.394Z,26.45
2023-02-19T19:51:33.740Z,19.30
2023-02-19T19:54:01.148Z,21.73
2023-02-19T19:56:27.845Z,12.02
2023-02-19T19:58:54.526Z,16.50
2023-02-19T20:01:23.035Z,21.17
2023-02-19T20:03:51.081Z,23.30
2023-02-19T20:06:27.964Z,17.60
2023-02-19T20:08:54.789Z,13.95
2023-02-19T20:11:21.508Z,12.77
2023-02-19T20:13:48.109Z,11.70
2023-02-19T20:16:14.872Z,15.85
2023-02-19T20:18:41.693Z,13.95
2023-02-19T20:21:09.372Z,10.48
2023-02-19T20:23:37.618Z,15.98
2023-02-19T20:26:05.483Z,12.57
2023-02-19T20:28:32.594Z,13.20
2023-02-19T20:30:59.286Z,9.27
2023-02-19T20:33:25.971Z,8.00
2023-02-19T20:35:52.791Z,7.90
2023-02-19T20:38:19.413Z,11.43
2023-02-19T20:40:46.224Z,15.77
2023-02-19T20:43:12.964Z,10.07
2023-02-19T20:45:41.070Z,10.57
2023-02-19T20:48:07.740Z,20.25
2023-02-19T20:50:34.472Z,9.60
2023-02-19T20:53:01.243Z,11.25
2023-02-19T20:55:28.780Z,8.88
2023-02-19T20:57:55.467Z,8.98
2023-02-19T21:00:22.317Z,9.07
2023-02-19T21:02:49.082Z,10.02
2023-02-19T21:05:17.511Z,23.08
2023-02-19T21:07:44.248Z,9.77
2023-02-19T21:10:10.942Z,14.55
2023-02-19T21:12:37.708Z,18.80
2023-02-19T21:15:04.896Z,10.82
2023-02-19T21:17:31.976Z,10.32
2023-02-19T21:19:58.636Z,14.35
2023-02-19T21:22:25.405Z,13.50
2023-02-19T21:24:53.135Z,11.35
2023-02-19T21:27:20.356Z,9.38
2023-02-19T21:29:47.342Z,9.52
2023-02-19T21:32:14.160Z,8.38
2023-02-19T21:34:40.916Z,9.20
2023-02-19T21:37:07.548Z,7.97
2023-02-19T21:39:34.735Z,9.63
2023-02-19T21:42:02.563Z,6.68
2023-02-19T21:44:29.276Z,7.45
2023-02-19T21:46:56.159Z,8.70
2023-02-19T21:49:22.829Z,8.50
2023-02-19T21:51:50.388Z,6.32
2023-02-19T21:54:19.074Z,6.40
2023-02-19T21:56:45.816Z,7.45
2023-02-19T21:59:12.584Z,7.03
2023-02-19T22:01:39.386Z,5.72
2023-02-19T22:04:06.886Z,7.43
2023-02-19T22:06:33.656Z,6.97
2023-02-19T22:09:00.430Z,5.40
2023-02-19T22:11:27.147Z,7.85
2023-02-19T22:13:53.791Z,8.13
2023-02-19T22:16:20.509Z,4.75
2023-02-19T22:18:55.067Z,6.93
2023-02-19T22:21:22.498Z,5.57
2023-02-19T22:23:49.897Z,6.53
2023-02-19T22:26:20.414Z,6.43
2023-02-19T22:28:47.900Z,5.65
2023-02-19T22:31:16.090Z,8.18
2023-02-19T22:33:42.993Z,5.05
2023-02-19T22:36:21.400Z,5.18
2023-02-19T22:38:48.290Z,5.78
2023-02-19T22:41:15.414Z,4.50
2023-02-19T22:43:42.055Z,6.28
2023-02-19T22:46:34.904Z,5.53
2023-02-19T22:49:03.025Z,5.88
2023-02-19T22:51:30.116Z,7.03
2023-02-19T22:53:57.591Z,5.30
2023-02-19T22:56:25.648Z,4.40
2023-02-19T22:58:52.894Z,4.35
2023-02-19T23:01:19.817Z,4.72
2023-02-19T23:03:55.595Z,4.47
2023-02-19T23:06:27.349Z,4.15
2023-02-19T23:08:55.146Z,5.40
2023-02-19T23:11:25.940Z,8.10
2023-02-19T23:13:52.591Z,11.57
2023-02-19T23:16:19.271Z,6.25
2023-02-19T23:18:45.953Z,6.43
2023-02-19T23:21:12.966Z,8.30
2023-02-19T23:23:43.123Z,4.78
2023-02-19T23:26:10.307Z,4.30
2023-02-19T23:28:38.682Z,8.93
2023-02-19T23:31:05.656Z,4.72
2023-02-19T23:33:32.404Z,5.07
2023-02-19T23:35:59.074Z,6.03
2023-02-19T23:38:25.707Z,4.93
2023-02-19T23:40:52.333Z,5.00
2023-02-19T23:43:19.099Z,5.07
2023-02-19T23:45:45.793Z,5.60
2023-02-19T23:48:12.489Z,6.30
2023-02-19T23:50:39.174Z,8.07
2023-02-19T23:53:05.887Z,5.65
2023-02-19T23:55:32.505Z,5.25
2023-02-19T23:57:59.151Z,5.07
